createdAt,value
2022-10-18T00:00:58.133Z,99756.97
2022-10-18T00:06:33.678Z,99768.84
2022-10-18T00:09:19.101Z,99764.50
2022-10-18T00:12:04.354Z,99769.25
2022-10-18T00:14:51.130Z,99777.56
2022-10-18T00:17:38.222Z,99781.16
2022-10-18T00:20:23.700Z,99782.34
2022-10-18T00:23:09.068Z,99772.44
2022-10-18T00:26:02.530Z,99773.25
2022-10-18T00:28:52.109Z,99774.03
2022-10-18T00:31:38.504Z,99778.00
2022-10-18T00:34:23.865Z,99778.00
2022-10-18T00:37:09.151Z,99774.44
2022-10-18T00:39:54.326Z,99770.84
2022-10-18T00:42:39.550Z,99768.09
2022-10-18T00:45:25.408Z,99764.53
2022-10-18T00:48:13.404Z,99768.50
2022-10-18T00:50:59.038Z,99760.19
2022-10-18T00:53:44.713Z,99769.28
2022-10-18T00:56:30.906Z,99769.28
2022-10-18T00:59:18.447Z,99763.75
2022-10-18T01:02:04.517Z,99773.25
2022-10-18T01:04:50.189Z,99769.28
2022-10-18T01:07:57.340Z,99771.28
2022-10-18T01:10:45.675Z,99764.91
2022-10-18T01:13:49.219Z,99763.34
2022-10-18T01:16:39.717Z,99768.91
2022-10-18T01:19:49.710Z,99774.44
2022-10-18T01:22:50.626Z,99767.31
2022-10-18T01:25:41.939Z,99770.09
2022-10-18T01:28:48.851Z,99775.63
2022-10-18T01:31:47.930Z,99768.91
2022-10-18T01:34:36.374Z,99764.16
2022-10-18T01:37:22.685Z,99764.53
2022-10-18T01:40:09.693Z,99768.50
2022-10-18T01:42:55.441Z,99775.63
2022-10-18T01:45:41.809Z,99772.06
2022-10-18T01:48:27.661Z,99768.50
2022-10-18T01:51:13.025Z,99766.94
2022-10-18T01:53:58.853Z,99771.69
2022-10-18T01:56:56.759Z,99779.63
2022-10-18T02:00:19.022Z,99778.06
2022-10-18T02:03:12.568Z,99778.06
2022-10-18T02:06:06.792Z,99771.69
2022-10-18T02:08:59.610Z,99769.34
2022-10-18T02:11:48.259Z,99773.69
2022-10-18T02:14:35.055Z,99763.78
2022-10-18T02:17:22.041Z,99774.88
2022-10-18T02:20:09.932Z,99770.13
2022-10-18T02:22:57.334Z,99773.69
2022-10-18T02:25:42.976Z,99775.66
2022-10-18T02:28:28.348Z,99772.91
2022-10-18T02:31:21.960Z,99774.88
2022-10-18T02:34:27.168Z,99779.63
2022-10-18T02:37:15.308Z,99780.44
2022-10-18T02:40:01.572Z,99778.06
2022-10-18T02:42:53.585Z,99777.28
2022-10-18T02:45:38.892Z,99785.97
2022-10-18T02:48:24.197Z,99778.84
2022-10-18T02:51:10.093Z,99781.63
2022-10-18T02:53:55.378Z,99782.41
2022-10-18T02:56:40.531Z,99782.81
2022-10-18T02:59:25.697Z,99785.59
2022-10-18T03:02:11.143Z,99787.16
2022-10-18T03:04:56.459Z,99787.16
2022-10-18T03:07:41.805Z,99785.59
2022-10-18T03:10:27.100Z,99789.16
2022-10-18T03:13:12.604Z,99796.69
2022-10-18T03:15:58.169Z,99794.69
2022-10-18T03:18:43.656Z,99796.69
2022-10-18T03:21:29.321Z,99788.38
2022-10-18T03:24:14.874Z,99782.81
2022-10-18T03:27:00.293Z,99798.25
2022-10-18T03:29:45.507Z,99800.25
2022-10-18T03:32:30.946Z,99801.47
2022-10-18T03:35:16.443Z,99786.78
2022-10-18T03:38:01.619Z,99784.81
2022-10-18T03:40:46.758Z,99788.38
2022-10-18T03:43:32.167Z,99786.78
2022-10-18T03:46:17.356Z,99791.16
2022-10-18T03:49:02.967Z,99798.25
2022-10-18T03:51:48.360Z,99796.69
2022-10-18T03:54:33.604Z,99794.69
2022-10-18T03:57:18.783Z,99782.81
2022-10-18T04:00:04.871Z,99774.91
2022-10-18T04:02:57.242Z,99776.06
2022-10-18T04:05:42.509Z,99776.50
2022-10-18T04:08:27.818Z,99784.00
2022-10-18T04:11:13.343Z,99780.00
2022-10-18T04:13:58.955Z,99780.78
2022-10-18T04:16:44.187Z,99786.34
2022-10-18T04:19:29.302Z,99778.78
2022-10-18T04:22:14.978Z,99789.47
2022-10-18T04:25:01.300Z,99790.63
2022-10-18T04:27:46.691Z,99791.81
2022-10-18T04:30:32.050Z,99789.78
2022-10-18T04:33:17.843Z,99789.81
2022-10-18T04:36:03.352Z,99783.06
2022-10-18T04:38:49.126Z,99789.00
2022-10-18T04:41:34.371Z,99796.13
2022-10-18T04:44:19.822Z,99783.03
2022-10-18T04:47:04.949Z,99798.53
2022-10-18T04:49:50.728Z,99792.16
2022-10-18T04:52:36.443Z,99785.81
2022-10-18T04:55:21.945Z,99785.03
2022-10-18T04:58:07.155Z,99775.94
2022-10-18T05:00:52.638Z,99768.38
2022-10-18T05:03:38.057Z,99766.00
2022-10-18T05:06:24.624Z,99762.06
2022-10-18T05:09:10.642Z,99762.41
2022-10-18T05:11:56.283Z,99763.22
2022-10-18T05:14:41.448Z,99764.41
2022-10-18T05:17:26.992Z,99763.25
2022-10-18T05:20:12.298Z,99766.81
2022-10-18T05:22:58.465Z,99763.63
2022-10-18T05:25:44.491Z,99767.63
2022-10-18T05:28:45.422Z,99762.06
2022-10-18T05:31:31.154Z,99766.84
2022-10-18T05:34:17.639Z,99756.53
2022-10-18T05:37:03.277Z,99764.47
2022-10-18T05:39:48.692Z,99758.91
2022-10-18T05:42:34.216Z,99749.00
2022-10-18T05:45:20.106Z,99746.22
2022-10-18T05:48:07.597Z,99732.75
2022-10-18T05:50:53.278Z,99720.06
2022-10-18T05:53:38.808Z,99708.19
2022-10-18T05:56:23.986Z,99702.63
2022-10-18T05:59:12.659Z,99704.63
2022-10-18T06:01:58.334Z,99703.84
2022-10-18T06:04:43.733Z,99705.81
2022-10-18T06:07:29.076Z,99716.13
2022-10-18T06:10:14.446Z,99723.66
2022-10-18T06:12:59.712Z,99714.56
2022-10-18T06:15:45.342Z,99720.09
2022-10-18T06:18:30.920Z,99712.97
2022-10-18T06:21:17.088Z,99707.41
2022-10-18T06:24:02.689Z,99710.19
2022-10-18T06:26:48.312Z,99707.84
2022-10-18T06:29:33.845Z,99715.34
2022-10-18T06:32:20.132Z,99720.13
2022-10-18T06:35:05.892Z,99726.88
2022-10-18T06:37:51.205Z,99736.78
2022-10-18T06:40:38.141Z,99741.53
2022-10-18T06:43:24.492Z,99734.38
2022-10-18T06:46:09.942Z,99727.22
2022-10-18T06:48:55.649Z,99724.84
2022-10-18T06:51:42.975Z,99726.44
2022-10-18T06:54:28.515Z,99733.16
2022-10-18T06:57:14.236Z,99738.28
2022-10-18T06:59:59.728Z,99732.31
2022-10-18T07:02:45.065Z,99726.00
2022-10-18T07:08:22.150Z,99727.56
2022-10-18T07:11:08.825Z,99737.09
2022-10-18T07:14:00.859Z,99732.31
2022-10-18T07:16:46.112Z,99735.50
2022-10-18T07:19:31.418Z,99727.97
2022-10-18T07:22:16.613Z,99729.16
2022-10-18T07:25:01.905Z,99731.16
2022-10-18T07:27:47.233Z,99730.38
2022-10-18T07:30:32.435Z,99726.38
2022-10-18T07:33:17.932Z,99732.72
2022-10-18T07:36:05.064Z,99735.13
2022-10-18T07:38:52.208Z,99729.56
2022-10-18T07:41:38.421Z,99733.16
2022-10-18T07:44:24.051Z,99728.78
2022-10-18T07:47:09.448Z,99733.53
2022-10-18T07:49:54.824Z,99722.44
2022-10-18T07:52:40.515Z,99725.22
2022-10-18T07:55:25.950Z,99724.44
2022-10-18T07:58:12.012Z,99720.88
2022-10-18T08:00:57.664Z,99719.66
2022-10-18T08:03:43.648Z,99719.66
2022-10-18T08:06:29.241Z,99721.66
2022-10-18T09:23:21.137Z,99618.53
2022-10-18T09:26:19.284Z,99623.31
2022-10-18T09:29:04.569Z,99617.75
2022-10-18T09:31:59.942Z,99619.75
2022-10-18T09:35:06.000Z,99617.75
2022-10-18T09:37:55.779Z,99607.00
2022-10-18T09:40:54.495Z,99608.97
2022-10-18T09:44:03.406Z,99604.63
2022-10-18T09:46:58.949Z,99605.81
2022-10-18T09:50:00.616Z,99601.84
2022-10-18T09:53:16.800Z,99594.69
2022-10-18T09:56:25.319Z,99587.97
2022-10-18T09:59:19.617Z,99590.31
2022-10-18T10:02:05.704Z,99585.97
2022-10-18T10:04:51.895Z,99585.19
2022-10-18T10:07:43.570Z,99587.97
2022-10-18T10:10:30.891Z,99579.25
2022-10-18T10:13:23.075Z,99579.63
2022-10-18T10:16:08.694Z,99583.59
2022-10-18T10:18:54.702Z,99583.59
2022-10-18T10:21:40.123Z,99578.03
2022-10-18T10:24:33.395Z,99585.59
2022-10-18T10:27:27.810Z,99586.00
2022-10-18T10:30:27.932Z,99582.84
2022-10-18T10:33:46.824Z,99584.06
2022-10-18T10:36:34.176Z,99581.28
2022-10-18T10:39:21.249Z,99665.72
2022-10-18T10:42:13.454Z,99662.16
2022-10-18T10:45:01.568Z,99703.00
2022-10-18T10:47:48.179Z,99707.78
2022-10-18T10:50:50.889Z,99707.78
2022-10-18T10:54:00.015Z,99706.19
2022-10-18T10:57:11.138Z,99717.72
2022-10-18T11:00:01.818Z,99708.19
2022-10-18T11:02:59.226Z,99706.63
2022-10-18T11:05:55.482Z,99695.50
2022-10-18T11:08:43.348Z,99696.69
2022-10-18T11:11:36.230Z,99699.47
2022-10-18T11:14:27.650Z,99699.47
2022-10-18T11:17:25.156Z,99700.69
2022-10-18T11:20:24.901Z,99709.00
2022-10-18T11:23:18.171Z,99712.97
2022-10-18T11:26:12.528Z,99725.66
2022-10-18T11:29:10.242Z,99714.97
2022-10-18T11:32:10.743Z,99704.25
2022-10-18T11:35:14.004Z,99715.75
2022-10-18T11:38:11.855Z,99716.16
2022-10-18T11:40:57.339Z,99715.34
2022-10-18T11:44:03.125Z,99728.06
2022-10-18T11:47:12.577Z,99724.88
2022-10-18T11:50:04.921Z,99715.78
2022-10-18T11:52:59.290Z,99733.22
2022-10-18T11:55:47.758Z,99728.84
2022-10-18T11:59:11.142Z,99734.38
2022-10-18T12:02:37.755Z,99724.50
2022-10-18T12:05:25.040Z,99729.28
2022-10-18T12:08:13.776Z,99742.34
2022-10-18T12:11:06.702Z,99738.78
2022-10-18T12:13:56.929Z,99736.78
2022-10-18T12:16:51.576Z,99744.75
2022-10-18T12:19:40.182Z,99744.75
2022-10-18T12:22:33.875Z,99739.97
2022-10-18T12:25:20.015Z,99754.25
2022-10-18T12:28:34.145Z,99757.03
2022-10-18T12:31:26.577Z,99761.34
2022-10-18T12:34:36.345Z,99748.25
2022-10-18T12:37:40.447Z,99733.56
2022-10-18T12:49:35.811Z,99742.59
2022-10-18T12:52:23.918Z,99743.81
2022-10-18T12:55:18.921Z,99757.28
2022-10-18T12:58:26.583Z,99759.22
2022-10-18T13:01:12.009Z,99769.16
2022-10-18T13:03:58.552Z,99767.16
2022-10-18T13:06:59.684Z,99765.94
2022-10-18T13:10:10.051Z,99762.78
2022-10-18T13:13:39.090Z,99758.78
2022-10-18T13:16:41.195Z,99749.28
2022-10-18T13:19:44.844Z,99763.53
2022-10-18T13:22:48.558Z,99759.56
2022-10-18T13:26:06.425Z,99768.25
2022-10-18T13:29:06.130Z,99767.47
2022-10-18T13:32:07.216Z,99763.50
2022-10-18T13:34:53.153Z,99760.72
2022-10-18T13:37:38.987Z,99761.09
2022-10-18T13:40:25.796Z,99765.03
2022-10-18T13:43:52.299Z,99757.88
2022-10-18T13:46:38.116Z,99758.25
2022-10-18T13:49:33.286Z,99757.06
2022-10-18T13:52:54.107Z,99750.69
2022-10-18T13:56:03.585Z,99751.06
2022-10-18T13:59:14.843Z,99748.66
2022-10-18T14:02:51.062Z,99745.06
2022-10-18T14:05:54.480Z,99748.22
2022-10-18T14:08:46.638Z,99747.38
2022-10-18T14:11:49.480Z,99747.81
2022-10-18T14:14:45.298Z,99738.66
2022-10-18T14:17:43.042Z,99735.47
2022-10-18T14:20:49.524Z,99741.44
2022-10-18T14:23:45.116Z,99739.81
2022-10-18T14:26:32.956Z,99740.97
2022-10-18T14:29:22.823Z,99752.09
2022-10-18T14:32:11.461Z,99756.06
2022-10-18T14:35:27.222Z,99758.84
2022-10-18T14:38:02.666Z,99770.69
2022-10-18T14:40:47.958Z,99777.00
2022-10-18T14:43:33.366Z,99777.41
2022-10-18T14:46:31.738Z,99779.41
2022-10-18T14:49:19.053Z,99785.41
2022-10-18T14:52:04.671Z,99785.81
2022-10-18T14:54:49.967Z,99789.34
2022-10-18T14:57:37.546Z,99781.84
2022-10-18T15:00:36.844Z,99772.34
2022-10-18T15:03:22.879Z,99777.53
2022-10-18T15:06:08.551Z,99775.16
2022-10-18T15:08:58.201Z,99780.31
2022-10-18T15:11:45.303Z,99781.53
2022-10-18T15:14:31.542Z,99770.81
2022-10-18T15:17:27.560Z,99766.44
2022-10-18T15:20:25.437Z,99767.25
2022-10-18T15:23:37.127Z,99768.88
2022-10-18T15:26:30.013Z,99772.06
2022-10-18T15:29:20.095Z,99770.50
2022-10-18T15:32:14.792Z,99779.59
2022-10-18T15:35:10.065Z,99780.00
2022-10-18T15:37:58.384Z,99787.13
2022-10-18T15:40:43.735Z,99792.66
2022-10-18T15:43:30.572Z,99793.84
2022-10-18T15:46:32.267Z,99790.28
2022-10-18T15:49:23.715Z,99790.25
2022-10-18T15:52:11.949Z,99793.81
2022-10-18T15:54:58.543Z,99803.72
2022-10-18T15:57:44.002Z,99806.94
2022-10-18T16:00:29.397Z,99802.94
2022-10-18T16:03:16.164Z,99805.31
2022-10-18T16:06:12.283Z,99813.22
2022-10-18T16:09:00.300Z,99815.59
2022-10-18T16:11:47.038Z,99809.25
2022-10-18T16:14:32.584Z,99813.66
2022-10-18T16:17:18.323Z,99828.72
2022-10-18T16:20:04.863Z,99820.38
2022-10-18T16:22:51.864Z,99817.59
2022-10-18T16:25:37.815Z,99822.75
2022-10-18T16:28:26.030Z,99829.88
2022-10-18T16:31:19.053Z,99833.88
2022-10-18T16:34:05.245Z,99831.88
2022-10-18T16:36:51.290Z,99831.88
2022-10-18T16:39:36.736Z,99834.22
2022-10-18T16:42:24.821Z,99832.25
2022-10-18T16:45:10.228Z,99842.56
2022-10-18T16:47:55.512Z,99838.19
2022-10-18T16:50:40.995Z,99835.81
2022-10-18T16:53:28.264Z,99842.56
2022-10-18T16:56:17.064Z,99841.38
2022-10-18T16:59:02.787Z,99823.91
2022-10-18T17:01:48.519Z,99834.59
2022-10-18T17:04:34.021Z,99826.66
2022-10-18T17:07:24.634Z,99832.22
2022-10-18T17:10:16.069Z,99834.59
2022-10-18T17:13:02.019Z,99832.97
2022-10-18T17:15:48.327Z,99829.78
2022-10-18T17:18:34.164Z,99840.91
2022-10-18T17:21:19.842Z,99841.69
2022-10-18T17:24:07.477Z,99848.84
2022-10-18T17:26:53.546Z,99847.63
2022-10-18T17:29:40.927Z,99855.19
2022-10-18T17:32:26.556Z,99856.34
2022-10-18T17:35:12.896Z,99845.63
2022-10-18T17:37:58.889Z,99842.84
2022-10-18T17:40:44.552Z,99842.47
2022-10-18T17:43:29.777Z,99839.28
2022-10-18T17:46:15.459Z,99839.28
2022-10-18T17:49:00.877Z,99841.69
2022-10-18T17:51:46.695Z,99852.75
2022-10-18T17:54:31.943Z,99851.13
2022-10-18T17:57:18.494Z,99847.94
2022-10-18T18:00:06.181Z,99846.00
2022-10-18T18:02:58.213Z,99857.50
2022-10-18T18:05:43.655Z,99853.13
2022-10-18T18:08:29.408Z,99848.78
2022-10-18T18:11:15.608Z,99855.91
2022-10-18T18:14:01.249Z,99846.38
2022-10-18T18:16:47.624Z,99844.00
2022-10-18T18:19:33.165Z,99850.31
2022-10-18T18:22:19.906Z,99847.94
2022-10-18T18:25:05.814Z,99847.97
2022-10-18T18:27:51.600Z,99845.63
2022-10-18T18:30:40.003Z,99844.03
2022-10-18T18:33:25.740Z,99848.03
2022-10-18T18:36:12.720Z,99845.25
2022-10-18T18:38:58.758Z,99849.66
2022-10-18T18:41:44.096Z,99859.19
2022-10-18T18:44:29.755Z,99858.44
2022-10-18T18:47:15.321Z,99861.59
2022-10-18T18:50:00.525Z,99865.22
2022-10-18T18:52:45.786Z,99862.06
2022-10-18T18:55:31.760Z,99856.09
2022-10-18T18:58:16.996Z,99856.50
2022-10-18T19:01:11.093Z,99848.22
2022-10-18T19:03:58.259Z,99847.84
2022-10-18T19:06:45.748Z,99846.66
2022-10-18T19:09:32.633Z,99846.28
2022-10-18T19:12:20.632Z,99841.91
2022-10-18T19:15:07.427Z,99838.34
2022-10-18T19:17:53.414Z,99857.00
2022-10-18T19:20:39.415Z,99859.41
2022-10-18T19:26:32.592Z,99863.00
2022-10-18T19:29:24.075Z,99869.75
2022-10-18T19:32:13.434Z,99872.94
2022-10-18T19:34:59.157Z,99875.34
2022-10-18T19:37:44.435Z,99867.41
2022-10-18T19:40:29.611Z,99864.25
2022-10-18T19:43:14.896Z,99871.78
2022-10-18T19:46:06.363Z,99878.56
2022-10-18T19:48:51.513Z,99876.97
2022-10-18T19:51:37.384Z,99876.56
2022-10-18T19:54:22.968Z,99884.13
2022-10-18T19:57:08.795Z,99876.19
2022-10-18T19:59:56.074Z,99878.97
2022-10-18T20:02:41.983Z,99878.56
2022-10-18T20:05:27.205Z,99878.19
2022-10-18T20:08:12.342Z,99887.72
2022-10-18T20:11:06.395Z,99888.94
2022-10-18T20:13:51.877Z,99879.00
2022-10-18T20:16:37.449Z,99880.22
2022-10-18T20:19:22.753Z,99884.16
2022-10-18T20:22:07.983Z,99877.03
2022-10-18T20:24:55.815Z,99882.59
2022-10-18T20:27:41.300Z,99876.66
2022-10-18T20:30:26.880Z,99877.84
2022-10-18T20:33:12.466Z,99885.38
2022-10-18T20:36:10.455Z,99879.03
2022-10-18T20:38:55.951Z,99877.44
2022-10-18T20:41:41.746Z,99877.44
2022-10-18T20:44:27.396Z,99878.66
2022-10-18T20:47:12.648Z,99878.66
2022-10-18T20:49:58.250Z,99869.91
2022-10-18T20:52:44.917Z,99862.78
2022-10-18T20:55:30.097Z,99868.34
2022-10-18T20:58:15.911Z,99872.28
2022-10-18T21:01:28.709Z,99877.44
2022-10-18T21:04:13.991Z,99878.66
2022-10-18T21:07:01.096Z,99874.28
2022-10-18T21:09:46.833Z,99877.88
2022-10-18T21:12:32.406Z,99879.44
2022-10-18T21:15:19.104Z,99884.22
2022-10-18T21:18:04.193Z,99870.34
2022-10-18T21:20:49.435Z,99867.97
2022-10-18T21:23:34.570Z,99878.66
2022-10-18T21:26:22.734Z,99873.13
2022-10-18T21:29:09.744Z,99873.91
2022-10-18T21:31:58.012Z,99871.94
2022-10-18T21:34:43.678Z,99875.50
2022-10-18T21:37:29.003Z,99878.28
2022-10-18T21:40:14.548Z,99869.94
2022-10-18T21:42:59.947Z,99865.56
2022-10-18T21:45:45.132Z,99866.00
2022-10-18T21:48:30.446Z,99867.97
2022-10-18T21:51:18.463Z,99860.84
2022-10-18T21:54:03.873Z,99873.16
2022-10-18T21:56:49.230Z,99878.69
2022-10-18T21:59:34.613Z,99877.09
2022-10-18T22:02:19.940Z,99877.09
2022-10-18T22:05:08.304Z,99880.28
2022-10-18T22:07:56.729Z,99877.91
2022-10-18T22:10:42.004Z,99881.47
2022-10-18T22:13:27.549Z,99866.81
2022-10-18T22:16:14.559Z,99870.78
2022-10-18T22:19:02.611Z,99860.88
2022-10-18T22:21:48.092Z,99865.22
2022-10-18T22:24:33.446Z,99862.88
2022-10-18T22:27:18.772Z,99863.66
2022-10-18T22:30:04.550Z,99856.50
2022-10-18T22:32:50.238Z,99871.19
2022-10-18T22:35:35.435Z,99856.50
2022-10-18T22:38:20.599Z,99866.81
2022-10-18T22:41:07.659Z,99877.91
2022-10-18T22:43:53.781Z,99866.03
2022-10-18T22:46:39.850Z,99864.81
2022-10-18T22:49:25.438Z,99866.81
2022-10-18T22:52:10.835Z,99871.19
2022-10-18T22:54:56.313Z,99874.34
2022-10-18T22:57:41.575Z,99861.66
2022-10-18T23:00:27.062Z,99854.94
2022-10-18T23:03:14.090Z,99859.69
2022-10-18T23:06:00.288Z,99858.88
2022-10-18T23:08:45.794Z,99862.88
2022-10-18T23:11:31.740Z,99858.09
2022-10-18T23:14:17.409Z,99862.88
2022-10-18T23:17:02.669Z,99868.41
2022-10-18T23:19:47.830Z,99869.97
2022-10-18T23:22:33.281Z,99861.31
2022-10-18T23:25:19.595Z,99866.84
2022-10-18T23:28:06.083Z,99869.63
2022-10-18T23:30:51.488Z,99871.59
2022-10-18T23:33:37.420Z,99865.25
2022-10-18T23:36:23.676Z,99881.91
2022-10-18T23:39:10.278Z,99870.03
2022-10-18T23:41:55.916Z,99867.25
2022-10-18T23:44:41.276Z,99863.69
2022-10-18T23:47:26.513Z,99878.34
2022-10-18T23:50:11.691Z,99872.00
2022-10-18T23:52:57.019Z,99870.41
2022-10-18T23:55:56.564Z,99868.41
2022-10-18T23:58:43.228Z,99873.56
